sensor_id;sensor_type;location;lat;lon;timestamp;P1;durP1;ratioP1;P2;durP2;ratioP2
71888;SDS011;59762;49.998;14.858;2022-10-16T00:01:18;11.80;;;5.27;;
71888;SDS011;59762;49.998;14.858;2022-10-16T00:03:45;15.20;;;5.00;;
71888;SDS011;59762;49.998;14.858;2022-10-16T00:06:12;13.05;;;5.50;;
71888;SDS011;59762;49.998;14.858;2022-10-16T00:08:39;25.55;;;6.43;;
71888;SDS011;59762;49.998;14.858;2022-10-16T00:11:06;14.63;;;5.60;;
71888;SDS011;59762;49.998;14.858;2022-10-16T00:13:33;48.15;;;12.88;;
71888;SDS011;59762;49.998;14.858;2022-10-16T00:16:00;62.22;;;17.35;;
71888;SDS011;59762;49.998;14.858;2022-10-16T00:18:26;44.33;;;12.90;;
71888;SDS011;59762;49.998;14.858;2022-10-16T00:20:52;46.53;;;13.68;;
71888;SDS011;59762;49.998;14.858;2022-10-16T00:23:19;44.67;;;13.07;;
71888;SDS011;59762;49.998;14.858;2022-10-16T00:25:53;25.95;;;8.20;;
71888;SDS011;59762;49.998;14.858;2022-10-16T00:28:20;10.98;;;4.40;;
71888;SDS011;59762;49.998;14.858;2022-10-16T00:30:46;8.07;;;3.78;;
71888;SDS011;59762;49.998;14.858;2022-10-16T00:33:11;14.13;;;5.68;;
71888;SDS011;59762;49.998;14.858;2022-10-16T00:35:37;9.05;;;4.90;;
71888;SDS011;59762;49.998;14.858;2022-10-16T00:38:03;17.63;;;5.82;;
71888;SDS011;59762;49.998;14.858;2022-10-16T00:40:28;16.95;;;5.93;;
71888;SDS011;59762;49.998;14.858;2022-10-16T00:42:54;13.13;;;5.88;;
71888;SDS011;59762;49.998;14.858;2022-10-16T00:45:20;22.30;;;7.90;;
71888;SDS011;59762;49.998;14.858;2022-10-16T00:47:45;29.08;;;9.00;;
71888;SDS011;59762;49.998;14.858;2022-10-16T00:50:26;47.58;;;11.90;;
71888;SDS011;59762;49.998;14.858;2022-10-16T00:52:55;32.83;;;9.88;;
71888;SDS011;59762;49.998;14.858;2022-10-16T00:55:21;34.00;;;9.85;;
71888;SDS011;59762;49.998;14.858;2022-10-16T00:57:47;18.55;;;7.43;;
71888;SDS011;59762;49.998;14.858;2022-10-16T01:00:15;22.65;;;7.50;;
71888;SDS011;59762;49.998;14.858;2022-10-16T01:02:51;22.25;;;7.07;;
71888;SDS011;59762;49.998;14.858;2022-10-16T01:05:21;10.63;;;4.05;;
71888;SDS011;59762;49.998;14.858;2022-10-16T01:13:27;24.85;;;6.95;;
71888;SDS011;59762;49.998;14.858;2022-10-16T01:16:05;29.30;;;7.47;;
71888;SDS011;59762;49.998;14.858;2022-10-16T01:18:49;25.25;;;7.07;;
71888;SDS011;59762;49.998;14.858;2022-10-16T01:21:23;13.30;;;4.57;;
71888;SDS011;59762;49.998;14.858;2022-10-16T01:28:54;16.23;;;5.20;;
71888;SDS011;59762;49.998;14.858;2022-10-16T01:31:25;9.50;;;3.72;;
71888;SDS011;59762;49.998;14.858;2022-10-16T01:34:12;4.45;;;2.40;;
71888;SDS011;59762;49.998;14.858;2022-10-16T01:36:45;11.48;;;3.80;;
71888;SDS011;59762;49.998;14.858;2022-10-16T01:39:16;7.28;;;3.00;;
71888;SDS011;59762;49.998;14.858;2022-10-16T01:41:52;18.85;;;5.65;;
71888;SDS011;59762;49.998;14.858;2022-10-16T01:44:25;14.85;;;4.28;;
71888;SDS011;59762;49.998;14.858;2022-10-16T01:46:54;7.28;;;2.88;;
71888;SDS011;59762;49.998;14.858;2022-10-16T01:49:21;6.30;;;2.40;;
71888;SDS011;59762;49.998;14.858;2022-10-16T01:51:50;4.47;;;2.40;;
71888;SDS011;59762;49.998;14.858;2022-10-16T01:54:20;6.07;;;3.05;;
71888;SDS011;59762;49.998;14.858;2022-10-16T01:56:51;4.75;;;2.22;;
71888;SDS011;59762;49.998;14.858;2022-10-16T01:59:18;4.22;;;2.65;;
71888;SDS011;59762;49.998;14.858;2022-10-16T02:01:50;3.47;;;2.40;;
71888;SDS011;59762;49.998;14.858;2022-10-16T02:04:23;4.38;;;2.50;;
71888;SDS011;59762;49.998;14.858;2022-10-16T02:06:52;6.28;;;2.80;;
71888;SDS011;59762;49.998;14.858;2022-10-16T02:09:18;5.47;;;2.35;;
71888;SDS011;59762;49.998;14.858;2022-10-16T02:11:43;5.10;;;2.72;;
71888;SDS011;59762;49.998;14.858;2022-10-16T02:14:10;4.28;;;2.63;;
71888;SDS011;59762;49.998;14.858;2022-10-16T02:16:40;3.83;;;2.55;;
71888;SDS011;59762;49.998;14.858;2022-10-16T02:19:08;8.18;;;3.72;;
71888;SDS011;59762;49.998;14.858;2022-10-16T02:21:42;4.47;;;2.42;;
71888;SDS011;59762;49.998;14.858;2022-10-16T02:24:13;4.70;;;2.88;;
71888;SDS011;59762;49.998;14.858;2022-10-16T02:26:52;5.75;;;2.60;;
71888;SDS011;59762;49.998;14.858;2022-10-16T02:29:25;4.53;;;2.75;;
71888;SDS011;59762;49.998;14.858;2022-10-16T02:31:59;4.57;;;2.75;;
71888;SDS011;59762;49.998;14.858;2022-10-16T02:34:29;4.32;;;2.72;;
71888;SDS011;59762;49.998;14.858;2022-10-16T02:36:58;2.55;;;2.22;;
71888;SDS011;59762;49.998;14.858;2022-10-16T02:39:24;4.53;;;2.95;;
71888;SDS011;59762;49.998;14.858;2022-10-16T02:41:52;4.15;;;2.63;;
71888;SDS011;59762;49.998;14.858;2022-10-16T02:44:18;3.92;;;2.13;;
71888;SDS011;59762;49.998;14.858;2022-10-16T02:46:43;3.67;;;2.25;;
71888;SDS011;59762;49.998;14.858;2022-10-16T02:49:09;4.65;;;2.58;;
71888;SDS011;59762;49.998;14.858;2022-10-16T02:51:35;14.07;;;2.80;;
71888;SDS011;59762;49.998;14.858;2022-10-16T02:54:01;5.53;;;2.63;;
71888;SDS011;59762;49.998;14.858;2022-10-16T02:56:27;4.53;;;2.50;;
71888;SDS011;59762;49.998;14.858;2022-10-16T02:58:52;5.50;;;2.90;;
71888;SDS011;59762;49.998;14.858;2022-10-16T03:01:18;7.70;;;3.10;;
71888;SDS011;59762;49.998;14.858;2022-10-16T03:03:44;8.70;;;3.40;;
71888;SDS011;59762;49.998;14.858;2022-10-16T03:06:09;6.45;;;2.92;;
71888;SDS011;59762;49.998;14.858;2022-10-16T03:08:35;4.70;;;2.85;;
71888;SDS011;59762;49.998;14.858;2022-10-16T03:11:00;4.60;;;2.85;;
71888;SDS011;59762;49.998;14.858;2022-10-16T03:13:26;6.03;;;2.28;;
71888;SDS011;59762;49.998;14.858;2022-10-16T03:15:52;4.97;;;2.53;;
71888;SDS011;59762;49.998;14.858;2022-10-16T03:18:17;4.40;;;2.47;;
71888;SDS011;59762;49.998;14.858;2022-10-16T03:20:43;6.95;;;2.38;;
71888;SDS011;59762;49.998;14.858;2022-10-16T03:23:09;3.47;;;2.10;;
71888;SDS011;59762;49.998;14.858;2022-10-16T03:25:34;9.02;;;2.88;;
71888;SDS011;59762;49.998;14.858;2022-10-16T03:28:00;13.60;;;3.15;;
71888;SDS011;59762;49.998;14.858;2022-10-16T03:30:26;5.10;;;2.35;;
71888;SDS011;59762;49.998;14.858;2022-10-16T03:32:51;5.80;;;2.75;;
71888;SDS011;59762;49.998;14.858;2022-10-16T03:35:22;9.18;;;2.90;;
71888;SDS011;59762;49.998;14.858;2022-10-16T03:37:49;15.18;;;4.90;;
71888;SDS011;59762;49.998;14.858;2022-10-16T03:40:16;6.53;;;2.78;;
71888;SDS011;59762;49.998;14.858;2022-10-16T03:42:42;11.65;;;3.30;;
71888;SDS011;59762;49.998;14.858;2022-10-16T03:45:08;3.20;;;2.63;;
71888;SDS011;59762;49.998;14.858;2022-10-16T03:47:35;7.55;;;3.90;;
71888;SDS011;59762;49.998;14.858;2022-10-16T03:50:01;8.38;;;2.78;;
71888;SDS011;59762;49.998;14.858;2022-10-16T03:52:27;3.72;;;2.47;;
71888;SDS011;59762;49.998;14.858;2022-10-16T03:54:53;7.85;;;3.72;;
71888;SDS011;59762;49.998;14.858;2022-10-16T03:57:18;3.97;;;2.28;;
71888;SDS011;59762;49.998;14.858;2022-10-16T03:59:44;6.65;;;3.42;;
71888;SDS011;59762;49.998;14.858;2022-10-16T04:02:09;6.05;;;2.47;;
71888;SDS011;59762;49.998;14.858;2022-10-16T04:04:35;4.53;;;2.03;;
71888;SDS011;59762;49.998;14.858;2022-10-16T04:07:01;4.30;;;2.38;;
71888;SDS011;59762;49.998;14.858;2022-10-16T04:09:26;3.70;;;2.47;;
71888;SDS011;59762;49.998;14.858;2022-10-16T04:11:52;4.93;;;2.45;;
71888;SDS011;59762;49.998;14.858;2022-10-16T04:14:18;2.97;;;2.30;;
71888;SDS011;59762;49.998;14.858;2022-10-16T04:16:43;4.07;;;2.10;;
71888;SDS011;59762;49.998;14.858;2022-10-16T04:19:09;5.50;;;1.83;;
71888;SDS011;59762;49.998;14.858;2022-10-16T04:21:36;6.78;;;2.08;;
71888;SDS011;59762;49.998;14.858;2022-10-16T04:24:01;7.35;;;2.78;;
71888;SDS011;59762;49.998;14.858;2022-10-16T04:26:28;3.80;;;2.00;;
71888;SDS011;59762;49.998;14.858;2022-10-16T04:28:53;2.28;;;1.60;;
71888;SDS011;59762;49.998;14.858;2022-10-16T04:31:19;7.85;;;2.65;;
71888;SDS011;59762;49.998;14.858;2022-10-16T04:33:46;3.45;;;1.92;;
71888;SDS011;59762;49.998;14.858;2022-10-16T04:36:12;3.83;;;2.22;;
71888;SDS011;59762;49.998;14.858;2022-10-16T04:38:38;4.63;;;1.92;;
71888;SDS011;59762;49.998;14.858;2022-10-16T04:41:05;3.47;;;1.83;;
71888;SDS011;59762;49.998;14.858;2022-10-16T04:43:31;3.63;;;2.22;;
71888;SDS011;59762;49.998;14.858;2022-10-16T04:45:57;5.25;;;2.33;;
71888;SDS011;59762;49.998;14.858;2022-10-16T04:48:22;13.30;;;4.00;;
71888;SDS011;59762;49.998;14.858;2022-10-16T04:50:48;8.52;;;4.07;;
71888;SDS011;59762;49.998;14.858;2022-10-16T04:53:13;5.53;;;3.05;;
71888;SDS011;59762;49.998;14.858;2022-10-16T04:55:39;8.93;;;3.50;;
71888;SDS011;59762;49.998;14.858;2022-10-16T04:58:07;9.35;;;2.78;;
71888;SDS011;59762;49.998;14.858;2022-10-16T05:00:33;8.38;;;2.92;;
71888;SDS011;59762;49.998;14.858;2022-10-16T05:02:59;6.68;;;2.78;;
71888;SDS011;59762;49.998;14.858;2022-10-16T05:05:26;12.30;;;2.83;;
71888;SDS011;59762;49.998;14.858;2022-10-16T05:07:52;8.32;;;3.20;;
71888;SDS011;59762;49.998;14.858;2022-10-16T05:10:18;4.45;;;2.55;;
71888;SDS011;59762;49.998;14.858;2022-10-16T05:12:44;4.03;;;1.98;;
71888;SDS011;59762;49.998;14.858;2022-10-16T05:15:10;2.85;;;1.85;;
71888;SDS011;59762;49.998;14.858;2022-10-16T05:17:35;3.88;;;1.95;;
71888;SDS011;59762;49.998;14.858;2022-10-16T05:20:01;1.70;;;1.30;;
71888;SDS011;59762;49.998;14.858;2022-10-16T05:22:28;4.07;;;2.53;;
71888;SDS011;59762;49.998;14.858;2022-10-16T05:24:54;5.68;;;2.80;;
71888;SDS011;59762;49.998;14.858;2022-10-16T05:27:19;2.38;;;1.80;;
71888;SDS011;59762;49.998;14.858;2022-10-16T05:29:45;1.60;;;1.30;;
71888;SDS011;59762;49.998;14.858;2022-10-16T05:32:12;3.22;;;2.45;;
71888;SDS011;59762;49.998;14.858;2022-10-16T05:34:39;3.10;;;1.90;;
71888;SDS011;59762;49.998;14.858;2022-10-16T05:37:04;2.00;;;1.65;;
71888;SDS011;59762;49.998;14.858;2022-10-16T05:39:30;2.75;;;1.63;;
71888;SDS011;59762;49.998;14.858;2022-10-16T05:41:56;4.50;;;2.80;;
71888;SDS011;59762;49.998;14.858;2022-10-16T05:44:22;3.47;;;2.28;;
71888;SDS011;59762;49.998;14.858;2022-10-16T05:46:47;2.67;;;1.85;;
71888;SDS011;59762;49.998;14.858;2022-10-16T05:49:13;6.38;;;3.00;;
71888;SDS011;59762;49.998;14.858;2022-10-16T05:51:39;4.60;;;2.38;;
71888;SDS011;59762;49.998;14.858;2022-10-16T05:54:04;4.80;;;3.17;;
71888;SDS011;59762;49.998;14.858;2022-10-16T05:56:30;7.35;;;3.80;;
71888;SDS011;59762;49.998;14.858;2022-10-16T05:58:55;9.98;;;4.30;;
71888;SDS011;59762;49.998;14.858;2022-10-16T06:01:21;9.25;;;4.55;;
71888;SDS011;59762;49.998;14.858;2022-10-16T06:03:52;6.10;;;3.17;;
71888;SDS011;59762;49.998;14.858;2022-10-16T06:06:21;5.78;;;2.97;;
71888;SDS011;59762;49.998;14.858;2022-10-16T06:08:48;14.38;;;4.22;;
71888;SDS011;59762;49.998;14.858;2022-10-16T06:11:17;19.17;;;4.63;;
71888;SDS011;59762;49.998;14.858;2022-10-16T06:13:51;17.60;;;4.88;;
71888;SDS011;59762;49.998;14.858;2022-10-16T06:16:18;21.67;;;6.35;;
71888;SDS011;59762;49.998;14.858;2022-10-16T06:18:46;15.20;;;4.53;;
71888;SDS011;59762;49.998;14.858;2022-10-16T06:21:14;14.93;;;5.00;;
71888;SDS011;59762;49.998;14.858;2022-10-16T06:23:43;25.60;;;7.35;;
71888;SDS011;59762;49.998;14.858;2022-10-16T06:26:09;20.08;;;5.57;;
71888;SDS011;59762;49.998;14.858;2022-10-16T06:28:37;23.38;;;7.68;;
71888;SDS011;59762;49.998;14.858;2022-10-16T06:31:03;27.35;;;6.85;;
71888;SDS011;59762;49.998;14.858;2022-10-16T06:33:30;14.35;;;4.82;;
71888;SDS011;59762;49.998;14.858;2022-10-16T06:36:00;17.52;;;6.00;;
71888;SDS011;59762;49.998;14.858;2022-10-16T06:38:26;15.88;;;5.57;;
71888;SDS011;59762;49.998;14.858;2022-10-16T06:40:53;10.88;;;4.57;;
71888;SDS011;59762;49.998;14.858;2022-10-16T06:43:19;7.75;;;3.80;;
71888;SDS011;59762;49.998;14.858;2022-10-16T06:45:50;10.68;;;5.18;;
71888;SDS011;59762;49.998;14.858;2022-10-16T06:48:16;12.40;;;6.60;;
71888;SDS011;59762;49.998;14.858;2022-10-16T06:50:42;10.77;;;5.18;;
71888;SDS011;59762;49.998;14.858;2022-10-16T06:53:07;8.57;;;4.75;;
71888;SDS011;59762;49.998;14.858;2022-10-16T06:55:33;10.27;;;4.25;;
71888;SDS011;59762;49.998;14.858;2022-10-16T06:57:59;6.00;;;3.67;;
71888;SDS011;59762;49.998;14.858;2022-10-16T07:00:24;4.20;;;2.83;;
71888;SDS011;59762;49.998;14.858;2022-10-16T07:02:50;6.78;;;3.17;;
71888;SDS011;59762;49.998;14.858;2022-10-16T07:05:15;7.47;;;3.75;;
71888;SDS011;59762;49.998;14.858;2022-10-16T07:07:41;7.57;;;3.40;;
71888;SDS011;59762;49.998;14.858;2022-10-16T07:10:07;5.15;;;2.95;;
71888;SDS011;59762;49.998;14.858;2022-10-16T07:12:33;26.55;;;8.55;;
71888;SDS011;59762;49.998;14.858;2022-10-16T07:14:59;72.70;;;23.10;;
71888;SDS011;59762;49.998;14.858;2022-10-16T07:17:24;18.45;;;6.60;;
71888;SDS011;59762;49.998;14.858;2022-10-16T07:19:50;13.27;;;4.90;;
71888;SDS011;59762;49.998;14.858;2022-10-16T07:22:18;11.98;;;4.55;;
71888;SDS011;59762;49.998;14.858;2022-10-16T07:24:43;10.60;;;4.47;;
71888;SDS011;59762;49.998;14.858;2022-10-16T07:27:10;19.05;;;5.75;;
71888;SDS011;59762;49.998;14.858;2022-10-16T07:29:35;22.45;;;8.57;;
71888;SDS011;59762;49.998;14.858;2022-10-16T07:32:01;30.38;;;9.20;;
71888;SDS011;59762;49.998;14.858;2022-10-16T07:34:27;23.75;;;8.85;;
71888;SDS011;59762;49.998;14.858;2022-10-16T07:36:53;31.90;;;10.38;;
71888;SDS011;59762;49.998;14.858;2022-10-16T07:39:18;16.90;;;6.85;;
71888;SDS011;59762;49.998;14.858;2022-10-16T07:41:44;8.35;;;4.30;;
71888;SDS011;59762;49.998;14.858;2022-10-16T07:44:10;18.92;;;5.63;;
71888;SDS011;59762;49.998;14.858;2022-10-16T07:46:38;26.17;;;8.55;;
71888;SDS011;59762;49.998;14.858;2022-10-16T07:49:04;42.65;;;12.50;;
71888;SDS011;59762;49.998;14.858;2022-10-16T07:51:30;61.47;;;19.15;;
71888;SDS011;59762;49.998;14.858;2022-10-16T07:53:55;46.05;;;13.63;;
71888;SDS011;59762;49.998;14.858;2022-10-16T07:56:21;19.80;;;6.43;;
71888;SDS011;59762;49.998;14.858;2022-10-16T07:58:47;16.27;;;5.45;;
71888;SDS011;59762;49.998;14.858;2022-10-16T08:01:15;8.18;;;3.17;;
71888;SDS011;59762;49.998;14.858;2022-10-16T08:03:42;66.90;;;36.70;;
71888;SDS011;59762;49.998;14.858;2022-10-16T08:06:08;34.50;;;11.77;;
71888;SDS011;59762;49.998;14.858;2022-10-16T08:08:34;16.67;;;6.30;;
71888;SDS011;59762;49.998;14.858;2022-10-16T08:11:00;11.05;;;4.40;;
71888;SDS011;59762;49.998;14.858;2022-10-16T08:13:28;7.90;;;4.97;;
71888;SDS011;59762;49.998;14.858;2022-10-16T08:15:54;8.52;;;4.32;;
71888;SDS011;59762;49.998;14.858;2022-10-16T08:18:20;31.75;;;13.80;;
71888;SDS011;59762;49.998;14.858;2022-10-16T08:20:46;32.15;;;12.77;;
71888;SDS011;59762;49.998;14.858;2022-10-16T08:23:12;16.05;;;5.28;;
71888;SDS011;59762;49.998;14.858;2022-10-16T08:25:38;6.00;;;3.38;;
71888;SDS011;59762;49.998;14.858;2022-10-16T08:28:06;5.82;;;3.05;;
71888;SDS011;59762;49.998;14.858;2022-10-16T08:30:33;3.97;;;2.67;;
71888;SDS011;59762;49.998;14.858;2022-10-16T08:32:59;26.17;;;11.50;;
71888;SDS011;59762;49.998;14.858;2022-10-16T08:35:26;13.13;;;5.18;;
71888;SDS011;59762;49.998;14.858;2022-10-16T08:37:52;23.83;;;7.68;;
71888;SDS011;59762;49.998;14.858;2022-10-16T08:40:19;5.68;;;3.30;;
71888;SDS011;59762;49.998;14.858;2022-10-16T08:50:38;4.72;;;2.45;;
71888;SDS011;59762;49.998;14.858;2022-10-16T08:53:05;6.03;;;2.63;;
71888;SDS011;59762;49.998;14.858;2022-10-16T08:57:58;4.18;;;2.30;;
71888;SDS011;59762;49.998;14.858;2022-10-16T09:00:24;12.93;;;4.65;;
71888;SDS011;59762;49.998;14.858;2022-10-16T09:02:53;3.22;;;2.08;;
71888;SDS011;59762;49.998;14.858;2022-10-16T09:11:14;19.02;;;7.00;;
71888;SDS011;59762;49.998;14.858;2022-10-16T09:22:44;11.38;;;4.50;;
71888;SDS011;59762;49.998;14.858;2022-10-16T09:25:11;8.32;;;3.75;;
71888;SDS011;59762;49.998;14.858;2022-10-16T09:27:42;7.00;;;3.42;;
71888;SDS011;59762;49.998;14.858;2022-10-16T09:30:15;5.05;;;2.65;;
71888;SDS011;59762;49.998;14.858;2022-10-16T09:32:43;3.88;;;2.70;;
71888;SDS011;59762;49.998;14.858;2022-10-16T09:35:18;5.32;;;3.03;;
71888;SDS011;59762;49.998;14.858;2022-10-16T09:37:47;7.47;;;2.63;;
71888;SDS011;59762;49.998;14.858;2022-10-16T09:40:25;4.75;;;2.33;;
71888;SDS011;59762;49.998;14.858;2022-10-16T09:43:16;9.98;;;4.68;;
71888;SDS011;59762;49.998;14.858;2022-10-16T09:46:00;15.90;;;6.40;;
71888;SDS011;59762;49.998;14.858;2022-10-16T09:48:37;11.90;;;5.53;;
71888;SDS011;59762;49.998;14.858;2022-10-16T09:51:28;10.48;;;4.43;;
71888;SDS011;59762;49.998;14.858;2022-10-16T09:53:56;19.25;;;5.78;;
71888;SDS011;59762;49.998;14.858;2022-10-16T09:56:34;16.48;;;6.03;;
71888;SDS011;59762;49.998;14.858;2022-10-16T09:59:10;16.70;;;6.18;;
71888;SDS011;59762;49.998;14.858;2022-10-16T10:01:44;10.07;;;4.32;;
71888;SDS011;59762;49.998;14.858;2022-10-16T10:04:12;15.48;;;5.82;;
71888;SDS011;59762;49.998;14.858;2022-10-16T10:06:49;22.58;;;6.82;;
71888;SDS011;59762;49.998;14.858;2022-10-16T10:11:51;7.13;;;3.45;;
71888;SDS011;59762;49.998;14.858;2022-10-16T10:14:36;7.10;;;3.05;;
71888;SDS011;59762;49.998;14.858;2022-10-16T10:17:20;9.07;;;2.88;;
71888;SDS011;59762;49.998;14.858;2022-10-16T10:27:41;15.57;;;6.18;;
71888;SDS011;59762;49.998;14.858;2022-10-16T10:46:51;4.32;;;1.85;;
71888;SDS011;59762;49.998;14.858;2022-10-16T11:00:30;8.50;;;3.30;;
71888;SDS011;59762;49.998;14.858;2022-10-16T11:06:11;4.35;;;1.73;;
71888;SDS011;59762;49.998;14.858;2022-10-16T11:08:52;4.00;;;1.43;;
71888;SDS011;59762;49.998;14.858;2022-10-16T11:11:31;5.25;;;2.20;;
71888;SDS011;59762;49.998;14.858;2022-10-16T11:14:15;4.78;;;1.95;;
71888;SDS011;59762;49.998;14.858;2022-10-16T11:17:19;4.22;;;2.08;;
71888;SDS011;59762;49.998;14.858;2022-10-16T11:19:57;4.85;;;1.80;;
71888;SDS011;59762;49.998;14.858;2022-10-16T11:22:30;9.18;;;3.13;;
71888;SDS011;59762;49.998;14.858;2022-10-16T11:27:39;5.05;;;2.33;;
71888;SDS011;59762;49.998;14.858;2022-10-16T11:30:16;4.22;;;1.80;;
71888;SDS011;59762;49.998;14.858;2022-10-16T11:38:39;2.80;;;1.50;;
71888;SDS011;59762;49.998;14.858;2022-10-16T11:41:17;1.98;;;1.25;;
71888;SDS011;59762;49.998;14.858;2022-10-16T11:49:31;2.22;;;1.25;;
71888;SDS011;59762;49.998;14.858;2022-10-16T11:52:11;2.45;;;1.30;;
71888;SDS011;59762;49.998;14.858;2022-10-16T11:54:47;1.33;;;0.90;;
71888;SDS011;59762;49.998;14.858;2022-10-16T11:57:19;2.70;;;1.55;;
71888;SDS011;59762;49.998;14.858;2022-10-16T11:59:52;1.05;;;0.80;;
71888;SDS011;59762;49.998;14.858;2022-10-16T12:08:09;3.15;;;1.40;;
71888;SDS011;59762;49.998;14.858;2022-10-16T12:10:36;4.88;;;2.42;;
71888;SDS011;59762;49.998;14.858;2022-10-16T12:13:04;5.45;;;2.67;;
71888;SDS011;59762;49.998;14.858;2022-10-16T12:15:32;13.20;;;4.30;;
71888;SDS011;59762;49.998;14.858;2022-10-16T12:17:58;6.72;;;2.10;;
71888;SDS011;59762;49.998;14.858;2022-10-16T12:20:29;3.53;;;1.88;;
71888;SDS011;59762;49.998;14.858;2022-10-16T12:23:06;6.32;;;2.45;;
71888;SDS011;59762;49.998;14.858;2022-10-16T12:25:42;3.30;;;1.33;;
71888;SDS011;59762;49.998;14.858;2022-10-16T12:28:26;2.50;;;1.65;;
71888;SDS011;59762;49.998;14.858;2022-10-16T12:30:53;2.88;;;1.67;;
71888;SDS011;59762;49.998;14.858;2022-10-16T12:33:28;2.47;;;1.20;;
71888;SDS011;59762;49.998;14.858;2022-10-16T12:35:57;2.05;;;1.00;;
71888;SDS011;59762;49.998;14.858;2022-10-16T12:38:28;2.50;;;1.13;;
71888;SDS011;59762;49.998;14.858;2022-10-16T12:41:11;2.45;;;1.40;;
71888;SDS011;59762;49.998;14.858;2022-10-16T12:43:43;4.43;;;1.75;;
71888;SDS011;59762;49.998;14.858;2022-10-16T12:48:37;7.70;;;3.08;;
71888;SDS011;59762;49.998;14.858;2022-10-16T13:00:04;9.48;;;3.88;;
71888;SDS011;59762;49.998;14.858;2022-10-16T13:02:49;13.38;;;5.18;;
71888;SDS011;59762;49.998;14.858;2022-10-16T13:13:31;7.50;;;3.75;;
71888;SDS011;59762;49.998;14.858;2022-10-16T13:18:46;6.15;;;2.45;;
71888;SDS011;59762;49.998;14.858;2022-10-16T13:21:33;6.73;;;2.40;;
71888;SDS011;59762;49.998;14.858;2022-10-16T13:24:13;7.80;;;2.97;;
71888;SDS011;59762;49.998;14.858;2022-10-16T13:29:41;4.93;;;2.10;;
71888;SDS011;59762;49.998;14.858;2022-10-16T13:32:08;1.50;;;1.10;;
71888;SDS011;59762;49.998;14.858;2022-10-16T13:34:44;1.67;;;1.10;;
71888;SDS011;59762;49.998;14.858;2022-10-16T13:39:42;3.10;;;1.80;;
71888;SDS011;59762;49.998;14.858;2022-10-16T13:42:12;2.20;;;1.52;;
71888;SDS011;59762;49.998;14.858;2022-10-16T13:44:41;2.13;;;1.60;;
71888;SDS011;59762;49.998;14.858;2022-10-16T13:47:19;2.08;;;1.45;;
71888;SDS011;59762;49.998;14.858;2022-10-16T13:52:44;5.05;;;2.30;;
71888;SDS011;59762;49.998;14.858;2022-10-16T13:55:11;6.28;;;1.23;;
71888;SDS011;59762;49.998;14.858;2022-10-16T13:57:41;1.77;;;1.27;;
71888;SDS011;59762;49.998;14.858;2022-10-16T14:00:21;3.80;;;1.77;;
71888;SDS011;59762;49.998;14.858;2022-10-16T14:02:53;5.88;;;2.70;;
71888;SDS011;59762;49.998;14.858;2022-10-16T14:05:23;3.50;;;1.85;;
71888;SDS011;59762;49.998;14.858;2022-10-16T14:07:49;3.38;;;1.70;;
71888;SDS011;59762;49.998;14.858;2022-10-16T14:10:25;4.03;;;1.58;;
71888;SDS011;59762;49.998;14.858;2022-10-16T14:12:56;6.07;;;3.08;;
71888;SDS011;59762;49.998;14.858;2022-10-16T14:15:25;15.20;;;6.43;;
71888;SDS011;59762;49.998;14.858;2022-10-16T14:17:51;7.78;;;4.63;;
71888;SDS011;59762;49.998;14.858;2022-10-16T14:20:18;7.90;;;3.47;;
71888;SDS011;59762;49.998;14.858;2022-10-16T14:22:46;5.72;;;3.00;;
71888;SDS011;59762;49.998;14.858;2022-10-16T14:30:57;4.20;;;2.55;;
71888;SDS011;59762;49.998;14.858;2022-10-16T14:33:30;10.23;;;5.07;;
71888;SDS011;59762;49.998;14.858;2022-10-16T14:38:34;10.13;;;5.15;;
71888;SDS011;59762;49.998;14.858;2022-10-16T14:41:00;10.23;;;5.68;;
71888;SDS011;59762;49.998;14.858;2022-10-16T14:43:33;10.93;;;5.40;;
71888;SDS011;59762;49.998;14.858;2022-10-16T14:46:02;15.15;;;6.65;;
71888;SDS011;59762;49.998;14.858;2022-10-16T14:48:32;13.15;;;5.45;;
71888;SDS011;59762;49.998;14.858;2022-10-16T14:50:58;8.68;;;4.22;;
71888;SDS011;59762;49.998;14.858;2022-10-16T14:53:24;8.43;;;4.43;;
71888;SDS011;59762;49.998;14.858;2022-10-16T14:55:50;10.77;;;4.00;;
71888;SDS011;59762;49.998;14.858;2022-10-16T14:58:16;7.78;;;3.95;;
71888;SDS011;59762;49.998;14.858;2022-10-16T15:00:44;6.20;;;2.72;;
71888;SDS011;59762;49.998;14.858;2022-10-16T15:03:10;5.95;;;2.30;;
71888;SDS011;59762;49.998;14.858;2022-10-16T15:05:35;4.97;;;2.15;;
71888;SDS011;59762;49.998;14.858;2022-10-16T15:08:01;4.90;;;2.40;;
71888;SDS011;59762;49.998;14.858;2022-10-16T15:10:27;15.85;;;6.28;;
71888;SDS011;59762;49.998;14.858;2022-10-16T15:12:55;22.25;;;8.05;;
71888;SDS011;59762;49.998;14.858;2022-10-16T15:17:49;116.10;;;44.80;;
71888;SDS011;59762;49.998;14.858;2022-10-16T15:20:20;98.00;;;43.03;;
71888;SDS011;59762;49.998;14.858;2022-10-16T15:22:46;83.20;;;33.15;;
71888;SDS011;59762;49.998;14.858;2022-10-16T15:25:34;74.25;;;29.27;;
71888;SDS011;59762;49.998;14.858;2022-10-16T15:28:01;92.72;;;35.92;;
71888;SDS011;59762;49.998;14.858;2022-10-16T15:30:28;72.38;;;30.08;;
71888;SDS011;59762;49.998;14.858;2022-10-16T15:32:55;20.75;;;9.85;;
71888;SDS011;59762;49.998;14.858;2022-10-16T15:35:20;17.85;;;7.57;;
71888;SDS011;59762;49.998;14.858;2022-10-16T15:37:47;42.30;;;18.67;;
71888;SDS011;59762;49.998;14.858;2022-10-16T15:40:13;39.88;;;17.35;;
71888;SDS011;59762;49.998;14.858;2022-10-16T15:42:39;29.42;;;14.32;;
71888;SDS011;59762;49.998;14.858;2022-10-16T15:45:05;33.17;;;16.85;;
71888;SDS011;59762;49.998;14.858;2022-10-16T15:47:32;22.58;;;12.23;;
71888;SDS011;59762;49.998;14.858;2022-10-16T15:49:57;15.02;;;8.35;;
71888;SDS011;59762;49.998;14.858;2022-10-16T15:52:23;10.80;;;5.03;;
71888;SDS011;59762;49.998;14.858;2022-10-16T15:54:49;14.88;;;5.55;;
71888;SDS011;59762;49.998;14.858;2022-10-16T15:57:14;9.30;;;4.80;;
71888;SDS011;59762;49.998;14.858;2022-10-16T15:59:40;17.83;;;5.80;;
71888;SDS011;59762;49.998;14.858;2022-10-16T16:02:07;15.32;;;6.43;;
71888;SDS011;59762;49.998;14.858;2022-10-16T16:04:33;16.70;;;5.80;;
71888;SDS011;59762;49.998;14.858;2022-10-16T16:07:00;17.60;;;6.25;;
71888;SDS011;59762;49.998;14.858;2022-10-16T16:09:26;11.90;;;4.80;;
71888;SDS011;59762;49.998;14.858;2022-10-16T16:11:54;11.65;;;4.35;;
71888;SDS011;59762;49.998;14.858;2022-10-16T16:14:20;13.63;;;5.20;;
71888;SDS011;59762;49.998;14.858;2022-10-16T16:16:46;10.63;;;4.75;;
71888;SDS011;59762;49.998;14.858;2022-10-16T16:19:11;11.43;;;4.75;;
71888;SDS011;59762;49.998;14.858;2022-10-16T16:21:37;17.33;;;6.57;;
71888;SDS011;59762;49.998;14.858;2022-10-16T16:24:03;46.55;;;17.25;;
71888;SDS011;59762;49.998;14.858;2022-10-16T16:26:33;47.70;;;15.90;;
71888;SDS011;59762;49.998;14.858;2022-10-16T16:29:03;26.17;;;8.32;;
71888;SDS011;59762;49.998;14.858;2022-10-16T16:31:29;15.43;;;5.95;;
71888;SDS011;59762;49.998;14.858;2022-10-16T16:33:56;13.18;;;6.13;;
71888;SDS011;59762;49.998;14.858;2022-10-16T16:36:23;17.15;;;7.13;;
71888;SDS011;59762;49.998;14.858;2022-10-16T16:38:49;18.52;;;8.07;;
71888;SDS011;59762;49.998;14.858;2022-10-16T16:41:23;15.48;;;7.72;;
71888;SDS011;59762;49.998;14.858;2022-10-16T16:43:51;12.38;;;6.30;;
71888;SDS011;59762;49.998;14.858;2022-10-16T16:46:18;8.32;;;4.78;;
71888;SDS011;59762;49.998;14.858;2022-10-16T16:48:44;7.82;;;3.67;;
71888;SDS011;59762;49.998;14.858;2022-10-16T16:51:11;7.18;;;3.92;;
71888;SDS011;59762;49.998;14.858;2022-10-16T16:53:40;27.80;;;12.68;;
71888;SDS011;59762;49.998;14.858;2022-10-16T16:56:07;48.05;;;17.35;;